Aplicació Alertes

Dades de l'estació automàtica Malniu (2.230 m)

?
?
Resum diari 22:30 TU
Dades diàries de l'estació meteorològica
Temperatura mitjana -5.2 °C
Temperatura màxima -0.6 °C 14:16 TU
Temperatura mínima -9.0 °C 0:41 TU
Humitat relativa mitjana 56%
Precipitació acumulada 0.1 mm
Gruix de neu màxim 75 cm
Ratxa màxima del vent (6 m) 23.4 km/h - 99º 8:23 TU
Irradiació solar global 15.8 MJ/m2

El tram horari està expressat en Temps Universal (TU). Cal sumar una hora en horari d'hivern i dues en horari d'estiu per passar a l'hora oficial.

Malniu (2.230 m)

Metadades estació meteorol´gica
Municipi Meranges
Comarca Cerdanya
Altitud 2230 m
Data alta 03.11.1999
Estat actual Operativa
Dades de període
Període
TU
TM
°C
TX
°C
TN
°C
HRM
%
PPT
mm
GN
cm
VVM (6 m)
km/h
DVM (6 m)
graus
VVX (6 m)
km/h
RS
W/m2
00:00 - 00:30 -8.2 -7.9 -8.5 60 0.0 75 1.4 358 8.6 0
00:30 - 01:00 -8.8 -8.5 -9.0 61 0.0 75 2.2 342 7.9 0
01:00 - 01:30 -8.3 -7.6 -8.7 58 0.0 75 3.6 306 9.4 0
01:30 - 02:00 -7.9 -7.5 -8.0 57 0.0 75 4.7 294 8.3 0
02:00 - 02:30 -7.9 -7.6 -8.0 57 0.0 75 4.0 304 9.0 0
02:30 - 03:00 -8.2 -7.8 -8.4 59 0.0 75 1.4 316 7.6 0
03:00 - 03:30 -8.4 -8.3 -8.6 56 0.0 75 3.6 335 11.2 0
03:30 - 04:00 -8.3 -8.1 -8.4 51 0.0 75 7.9 346 12.2 0
04:00 - 04:30 -8.1 -8.0 -8.2 52 0.0 75 6.1 357 11.2 0
04:30 - 05:00 -8.0 -7.8 -8.2 48 0.0 75 6.1 356 11.2 0
05:00 - 05:30 -7.8 -7.4 -8.1 43 0.0 74 5.0 349 11.5 0
05:30 - 06:00 -7.8 -7.4 -8.3 49 0.0 74 5.8 349 9.4 0
06:00 - 06:30 -8.0 -7.4 -8.3 45 0.0 75 1.8 323 7.6 0
06:30 - 07:00 -7.1 -6.3 -7.5 42 0.0 75 1.8 327 7.9 11
07:00 - 07:30 -5.7 -5.1 -6.3 39 0.0 75 2.5 191 7.9 98
07:30 - 08:00 -5.5 -4.3 -5.9 40 0.0 74 2.2 238 5.4 200
08:00 - 08:30 -4.2 -3.9 -4.4 38 0.0 75 8.3 101 23.4 309
08:30 - 09:00 -3.5 -3.0 -4.1 37 0.0 75 7.9 104 20.2 408
09:00 - 09:30 -2.9 -2.3 -3.4 36 0.0 75 6.1 106 14.8 492
09:30 - 10:00 -2.5 -2.1 -2.9 37 0.0 75 5.0 123 13.7 568
10:00 - 10:30 -2.4 -2.1 -2.9 37 0.0 74 7.6 111 16.9 631
10:30 - 11:00 -2.4 -1.8 -2.8 35 0.0 74 8.6 103 19.1 679
11:00 - 11:30 -2.2 -1.6 -2.7 40 0.0 75 8.6 102 21.6 693
11:30 - 12:00 -2.2 -1.3 -2.8 45 0.0 74 6.1 137 18.7 735
12:00 - 12:30 -1.6 -1.0 -2.1 50 0.0 74 5.8 193 14.8 684
12:30 - 13:00 -2.2 -1.9 -2.6 51 0.0 74 5.8 213 14.4 613
13:00 - 13:30 -1.8 -1.4 -2.3 49 0.0 74 5.0 195 16.6 592
13:30 - 14:00 -1.8 -1.4 -2.5 49 0.0 74 4.3 188 13.7 530
14:00 - 14:30 -1.2 -0.6 -2.5 45 0.0 74 4.0 174 15.5 504
14:30 - 15:00 -2.0 -1.5 -2.5 48 0.0 74 2.5 163 8.3 416
15:00 - 15:30 -2.2 -1.7 -2.6 50 0.1 74 2.9 186 13.0 288
15:30 - 16:00 -2.5 -2.0 -3.1 53 0.0 74 4.3 203 11.2 212
16:00 - 16:30 -3.3 -3.2 -3.5 59 0.0 75 2.9 208 11.2 92
16:30 - 17:00 -3.9 -3.6 -4.3 73 0.0 74 3.6 229 8.6 68
17:00 - 17:30 -4.8 -4.3 -5.1 76 0.0 75 4.0 229 9.7 12
17:30 - 18:00 -5.2 -5.1 -5.4 77 0.0 75 3.6 244 7.6 1
18:00 - 18:30 -5.4 -5.4 -5.5 79 0.0 75 1.8 191 5.8 0
18:30 - 19:00 -5.5 -5.4 -5.7 76 0.0 74 2.9 29 11.5 0
19:00 - 19:30 -5.6 -5.4 -5.8 72 0.0 74 2.5 24 9.0 0
19:30 - 20:00 -6.1 -5.9 -6.2 75 0.0 75 0.7 13 4.7 0
20:00 - 20:30 -6.2 -5.9 -6.3 77 0.0 74 1.4 243 5.8 0
20:30 - 21:00 -6.2 -5.9 -6.3 77 0.0 74 1.4 246 7.9 0
21:00 - 21:30 -6.2 -6.1 -6.4 78 0.0 74 4.0 239 12.2 0
21:30 - 22:00 -6.0 -5.6 -6.3 77 0.0 74 5.4 252 13.3 0
22:00 - 22:30 -5.9 -5.5 -6.3 79 0.0 74 3.6 246 11.2 0
22:30 - 23:00 -5.9 -4.8 -6.5 83 0.0 75 2.9 243 8.3 0

Les dades en taronja només han passat un control de qualitat automàtic. Resta pendent la seva validació definitiva.